createdAt,value
2022-11-24T00:04:32.783Z,0.37
2022-11-24T00:09:34.995Z,0.24
2022-11-24T00:14:37.027Z,0.38
2022-11-24T00:19:39.054Z,0.37
2022-11-24T00:24:41.102Z,0.31
2022-11-24T00:29:43.240Z,0.33
2022-11-24T00:34:45.550Z,0.28
2022-11-24T00:39:47.590Z,0.10
2022-11-24T00:44:49.688Z,0.26
2022-11-24T00:49:51.784Z,0.22
2022-11-24T00:54:53.821Z,0.21
2022-11-24T00:59:55.786Z,0.11
2022-11-24T01:04:57.776Z,0.20
2022-11-24T01:09:59.841Z,0.16
2022-11-24T01:15:02.195Z,-0.04
2022-11-24T01:20:05.427Z,0.08
2022-11-24T01:25:09.232Z,0.15
2022-11-24T01:30:11.512Z,0.15
2022-11-24T01:35:13.579Z,0.06
2022-11-24T01:40:15.908Z,0.17
2022-11-24T01:45:23.907Z,0.31
2022-11-24T01:50:26.109Z,0.21
2022-11-24T01:55:34.669Z,0.28
2022-11-24T02:00:39.218Z,0.21
2022-11-24T02:05:51.049Z,0.30
2022-11-24T02:10:54.941Z,0.22
2022-11-24T02:15:57.009Z,0.16
2022-11-24T02:21:01.532Z,0.21
2022-11-24T02:26:18.524Z,0.27
2022-11-24T02:31:20.666Z,0.06
2022-11-24T02:36:22.702Z,0.10
2022-11-24T02:41:26.976Z,-0.19
2022-11-24T02:46:30.097Z,-0.17
2022-11-24T02:51:34.502Z,-0.31
2022-11-24T02:56:36.609Z,-0.46
2022-11-24T03:01:38.685Z,-0.54
2022-11-24T03:06:40.883Z,-0.62
2022-11-24T03:11:43.094Z,-0.68
2022-11-24T03:16:45.144Z,-0.74
2022-11-24T03:21:47.232Z,-0.74
2022-11-24T03:26:49.301Z,-0.71
2022-11-24T03:31:51.387Z,-0.71
2022-11-24T03:36:53.349Z,-0.73
2022-11-24T03:41:55.476Z,-0.81
2022-11-24T03:46:57.752Z,-0.89
2022-11-24T03:52:02.657Z,-0.95
2022-11-24T03:57:08.790Z,-0.98
2022-11-24T04:02:10.931Z,-0.84
2022-11-24T04:07:12.956Z,-0.82
2022-11-24T04:12:33.657Z,-0.79
2022-11-24T04:17:35.770Z,-0.88
2022-11-24T04:22:38.242Z,-0.80
2022-11-24T04:27:40.434Z,-0.77
2022-11-24T04:32:42.522Z,-0.93
2022-11-24T04:37:44.645Z,-0.75
2022-11-24T04:42:55.081Z,-0.74
2022-11-24T04:47:57.085Z,-0.64
2022-11-24T04:52:59.167Z,-0.89
2022-11-24T04:58:02.281Z,-0.84
2022-11-24T05:03:05.021Z,-0.96
2022-11-24T05:08:07.035Z,-0.99
2022-11-24T05:13:13.664Z,-0.92
2022-11-24T05:18:16.871Z,-0.95
2022-11-24T05:23:18.935Z,-0.96
2022-11-24T05:28:21.073Z,-0.97
2022-11-24T05:33:23.200Z,-0.88
2022-11-24T05:38:25.223Z,-0.80
2022-11-24T05:43:27.413Z,-0.89
2022-11-24T05:48:29.609Z,-0.77
2022-11-24T05:53:31.705Z,-0.75
2022-11-24T05:58:33.712Z,-0.75
2022-11-24T06:03:35.856Z,-0.87
2022-11-24T06:08:38.002Z,-0.72
2022-11-24T06:13:41.834Z,-0.62
2022-11-24T06:18:44.134Z,-0.66
2022-11-24T06:23:49.397Z,-0.50
2022-11-24T06:28:51.382Z,-0.56
2022-11-24T06:33:53.834Z,-0.69
2022-11-24T06:38:55.902Z,-0.57
2022-11-24T06:43:58.181Z,-0.56
2022-11-24T06:49:00.731Z,-0.52
2022-11-24T06:54:06.757Z,-0.43
2022-11-24T06:59:17.609Z,-0.38
2022-11-24T07:04:19.966Z,-0.22
2022-11-24T07:09:21.980Z,0.47
2022-11-24T07:14:25.977Z,1.37
2022-11-24T07:19:28.683Z,1.93
2022-11-24T07:24:30.774Z,2.39
2022-11-24T07:29:32.785Z,2.20
2022-11-24T07:34:35.025Z,1.68
2022-11-24T07:39:37.294Z,1.24
2022-11-24T07:44:40.729Z,0.99
2022-11-24T07:49:42.733Z,0.88
2022-11-24T07:54:44.744Z,0.67
2022-11-24T07:59:46.765Z,0.81
2022-11-24T08:04:48.833Z,0.69
2022-11-24T08:09:52.256Z,0.48
2022-11-24T08:14:54.350Z,0.27
2022-11-24T08:19:56.410Z,0.09
2022-11-24T08:24:58.418Z,0.07
2022-11-24T08:30:00.390Z,0.15
2022-11-24T08:35:13.923Z,0.12
2022-11-24T08:40:17.023Z,0.29
2022-11-24T08:45:21.458Z,0.25
2022-11-24T08:50:25.690Z,0.21
2022-11-24T08:55:27.800Z,0.16
2022-11-24T09:00:29.873Z,0.07
2022-11-24T09:10:54.824Z,0.25
2022-11-24T09:15:56.869Z,0.32
2022-11-24T09:21:08.445Z,0.38
2022-11-24T09:26:19.576Z,0.43
2022-11-24T09:31:24.150Z,0.43
2022-11-24T09:36:26.502Z,0.38
2022-11-24T09:41:40.662Z,0.45
2022-11-24T09:47:16.476Z,0.39
2022-11-24T09:52:47.398Z,0.21
2022-11-24T09:57:59.112Z,0.10
2022-11-24T10:03:00.988Z,0.31
2022-11-24T10:08:39.389Z,0.19
2022-11-24T10:14:03.115Z,0.13
2022-11-24T10:19:17.648Z,0.26
2022-11-24T10:24:28.565Z,0.25
2022-11-24T10:29:39.933Z,0.23
2022-11-24T10:34:45.405Z,0.16
2022-11-24T10:40:00.819Z,0.14
2022-11-24T10:45:15.130Z,-0.04
2022-11-24T10:50:19.788Z,-0.10
2022-11-24T10:55:21.872Z,-0.20
2022-11-24T11:00:23.845Z,-0.05
2022-11-24T11:05:42.427Z,0.13
2022-11-24T11:10:45.676Z,0.04
2022-11-24T11:15:47.978Z,-0.07
2022-11-24T11:20:58.497Z,-0.08
2022-11-24T11:26:25.263Z,-0.06
2022-11-24T11:31:28.417Z,-0.50
2022-11-24T11:36:32.909Z,-0.66
2022-11-24T11:41:41.214Z,-0.70
2022-11-24T11:46:45.165Z,-0.65
2022-11-24T11:52:05.459Z,-0.59
2022-11-24T11:57:25.866Z,-0.66
2022-11-24T12:02:53.654Z,-0.65
2022-11-24T12:08:12.502Z,-0.80
2022-11-24T12:13:35.550Z,-0.93
2022-11-24T12:19:03.202Z,-0.88
2022-11-24T12:24:30.575Z,-1.00
2022-11-24T12:30:02.418Z,-1.10
2022-11-24T12:35:20.445Z,-1.23
2022-11-24T12:40:46.688Z,-1.24
2022-11-24T12:46:17.213Z,-1.25
2022-11-24T12:51:24.365Z,-1.28
2022-11-24T12:56:51.093Z,-1.49
2022-11-24T13:02:02.131Z,-1.57
2022-11-24T13:07:19.467Z,-1.65
2022-11-24T13:12:22.287Z,-1.82
2022-11-24T13:17:38.254Z,-1.86
2022-11-24T13:22:58.749Z,-1.85
2022-11-24T13:28:03.076Z,-1.82
2022-11-24T13:33:16.178Z,-1.82
2022-11-24T13:38:51.087Z,-1.85
2022-11-24T13:44:17.562Z,-1.81
2022-11-24T13:49:20.769Z,-1.93
2022-11-24T13:54:25.697Z,-1.94
2022-11-24T13:59:34.693Z,-1.86
2022-11-24T14:04:39.594Z,-1.93
2022-11-24T14:09:51.115Z,-2.16
2022-11-24T14:15:20.578Z,-2.15
2022-11-24T14:20:25.489Z,-2.20
2022-11-24T14:25:32.489Z,-2.19
2022-11-24T14:30:34.528Z,-2.25
2022-11-24T14:35:49.401Z,-2.21
2022-11-24T14:40:54.138Z,-2.37
2022-11-24T14:45:59.484Z,-2.24
2022-11-24T14:51:15.013Z,-2.33
2022-11-24T14:56:28.944Z,-2.23
2022-11-24T15:01:34.130Z,-2.39
2022-11-24T15:06:36.588Z,-2.51
2022-11-24T15:11:38.855Z,-2.53
2022-11-24T15:16:41.018Z,-2.59
2022-11-24T15:21:43.054Z,-2.62
2022-11-24T15:26:45.853Z,-2.62
2022-11-24T15:31:52.325Z,-2.74
2022-11-24T15:36:54.584Z,-2.61
2022-11-24T15:41:56.716Z,-2.56
2022-11-24T15:46:58.801Z,-2.58
2022-11-24T15:52:01.090Z,-2.62
2022-11-24T15:57:03.184Z,-2.63
2022-11-24T16:02:05.212Z,-2.58
2022-11-24T16:07:12.341Z,-2.40
2022-11-24T16:12:14.385Z,-2.45
2022-11-24T16:17:16.375Z,-2.52
2022-11-24T16:22:18.579Z,-2.58
2022-11-24T16:27:20.678Z,-2.60
2022-11-24T16:32:22.743Z,-2.57
2022-11-24T16:37:24.845Z,-2.72
2022-11-24T16:42:26.981Z,-2.63
2022-11-24T16:47:29.105Z,-2.93
2022-11-24T16:52:31.167Z,-2.81
2022-11-24T16:57:33.404Z,-3.07
2022-11-24T17:02:35.672Z,-2.91
2022-11-24T17:07:39.397Z,-2.87
2022-11-24T17:12:41.497Z,-2.84
2022-11-24T17:18:08.369Z,-2.90
2022-11-24T17:23:06.696Z,-2.94
2022-11-24T17:28:08.669Z,-2.87
2022-11-24T17:33:10.768Z,-2.86
2022-11-24T17:38:12.982Z,-3.00
2022-11-24T17:43:14.965Z,-3.10
2022-11-24T17:48:17.038Z,-2.94
2022-11-24T17:53:19.020Z,-2.98
2022-11-24T17:58:21.172Z,-2.96
2022-11-24T18:03:24.166Z,-2.99
2022-11-24T18:08:26.270Z,-2.95
2022-11-24T18:13:55.332Z,-2.88
2022-11-24T18:19:07.906Z,-2.84
2022-11-24T18:24:12.512Z,-2.87
2022-11-24T18:29:14.507Z,-2.92
2022-11-24T18:34:16.554Z,-2.85
2022-11-24T18:39:19.372Z,-2.87
2022-11-24T18:44:22.687Z,-2.88
2022-11-24T18:49:24.734Z,-2.84
2022-11-24T18:54:28.188Z,-2.79
2022-11-24T18:59:30.238Z,-2.81
2022-11-24T19:04:32.236Z,-2.85
2022-11-24T19:09:34.266Z,-2.84
2022-11-24T19:14:36.731Z,-2.80
2022-11-24T19:19:39.835Z,-2.81
2022-11-24T19:24:41.907Z,-2.78
2022-11-24T19:29:43.990Z,-2.77
2022-11-24T19:34:46.072Z,-2.74
2022-11-24T19:39:48.392Z,-2.83
2022-11-24T19:44:56.200Z,-2.92
2022-11-24T19:49:58.929Z,-2.96
2022-11-24T19:55:02.265Z,-2.93
2022-11-24T20:00:07.785Z,-2.85
2022-11-24T20:05:09.856Z,-2.93
2022-11-24T20:10:11.918Z,-2.86
2022-11-24T20:15:15.095Z,-2.82
2022-11-24T20:20:17.253Z,-2.88
2022-11-24T20:25:19.375Z,-2.79
2022-11-24T20:30:21.440Z,-2.78
2022-11-24T20:35:23.450Z,-2.83
2022-11-24T20:40:25.485Z,-2.79
2022-11-24T20:45:27.591Z,-2.84
2022-11-24T20:50:29.650Z,-2.88
2022-11-24T20:55:33.697Z,-2.89
2022-11-24T21:00:35.882Z,-3.08
2022-11-24T21:05:38.056Z,-3.26
2022-11-24T21:10:40.142Z,-3.25
2022-11-24T21:15:42.209Z,-3.34
2022-11-24T21:20:44.735Z,-3.25
2022-11-24T21:25:46.794Z,-3.24
2022-11-24T21:30:48.888Z,-3.31
2022-11-24T21:35:50.948Z,-3.29
2022-11-24T21:40:53.029Z,-3.20
2022-11-24T21:45:55.391Z,-3.10
2022-11-24T21:50:59.033Z,-3.12
2022-11-24T21:56:03.574Z,-3.20
2022-11-24T22:01:10.714Z,-3.22
2022-11-24T22:06:13.482Z,-3.17
2022-11-24T22:11:23.838Z,-3.06
2022-11-24T22:16:26.062Z,-3.26
2022-11-24T22:21:33.212Z,-3.50
2022-11-24T22:26:35.896Z,-3.50
2022-11-24T22:31:37.905Z,-3.47
2022-11-24T22:36:39.945Z,-3.31
2022-11-24T22:41:41.973Z,-3.18
2022-11-24T22:46:43.948Z,-3.22
2022-11-24T22:51:45.988Z,-3.27
2022-11-24T22:56:48.050Z,-3.24
2022-11-24T23:01:50.186Z,-3.38
2022-11-24T23:06:52.369Z,-3.18
2022-11-24T23:11:54.321Z,-3.14
2022-11-24T23:16:56.364Z,-3.12
2022-11-24T23:21:58.510Z,-3.05
2022-11-24T23:27:00.477Z,-3.17
2022-11-24T23:32:02.510Z,-3.19
2022-11-24T23:37:04.630Z,-2.99
2022-11-24T23:42:06.681Z,-3.08
2022-11-24T23:47:08.719Z,-3.00
2022-11-24T23:52:10.911Z,-3.01
2022-11-24T23:57:12.933Z,-2.96
